createdAt,value
2019-03-22T00:02:23.980Z,39.42
2019-03-22T00:06:28.014Z,40.88
2019-03-22T00:10:31.590Z,41.00
2019-03-22T00:14:37.015Z,40.85
2019-03-22T00:18:40.422Z,41.30
2019-03-22T00:22:44.093Z,42.27
2019-03-22T00:26:47.692Z,40.80
2019-03-22T00:30:51.278Z,40.52
2019-03-22T00:34:54.892Z,40.80
2019-03-22T00:38:58.499Z,40.10
2019-03-22T00:43:02.106Z,41.77
2019-03-22T00:47:05.697Z,41.83
2019-03-22T00:51:09.327Z,40.73
2019-03-22T00:55:12.987Z,41.18
2019-03-22T00:59:16.591Z,41.08
2019-03-22T01:03:20.182Z,42.62
2019-03-22T01:07:23.793Z,40.23
2019-03-22T01:11:29.019Z,43.65
2019-03-22T01:15:32.600Z,43.07
2019-03-22T01:19:36.217Z,42.45
2019-03-22T01:23:39.828Z,42.73
2019-03-22T01:27:44.137Z,41.54
2019-03-22T01:31:48.682Z,43.58
2019-03-22T01:35:52.257Z,43.87
2019-03-22T01:39:55.867Z,41.45
2019-03-22T01:43:59.978Z,41.54
2019-03-22T01:48:03.588Z,41.23
2019-03-22T01:52:07.211Z,42.15
2019-03-22T01:56:10.803Z,41.63
2019-03-22T02:00:15.711Z,41.77
2019-03-22T02:04:19.374Z,41.60
2019-03-22T02:08:22.975Z,40.88
2019-03-22T02:12:26.702Z,42.08
2019-03-22T02:16:30.349Z,44.70
2019-03-22T02:20:33.951Z,39.70
2019-03-22T02:24:37.563Z,42.58
2019-03-22T02:28:41.178Z,42.75
2019-03-22T02:32:44.923Z,41.45
2019-03-22T02:36:48.845Z,41.77
2019-03-22T02:40:52.438Z,41.80
2019-03-22T02:44:56.059Z,44.93
2019-03-22T02:48:59.663Z,44.40
2019-03-22T02:53:03.362Z,42.62
2019-03-22T02:57:06.969Z,42.75
2019-03-22T03:01:10.741Z,40.25
2019-03-22T03:05:14.986Z,43.98
2019-03-22T03:09:18.587Z,36.95
2019-03-22T03:13:22.193Z,39.80
2019-03-22T03:17:25.855Z,37.88
2019-03-22T03:21:29.413Z,37.17
2019-03-22T03:25:33.064Z,37.45
2019-03-22T03:29:36.694Z,37.20
2019-03-22T03:33:40.269Z,37.35
2019-03-22T03:37:44.827Z,39.63
2019-03-22T03:41:48.740Z,37.85
2019-03-22T03:45:52.346Z,38.40
2019-03-22T03:49:56.244Z,36.63
2019-03-22T03:53:59.842Z,36.73
2019-03-22T03:58:03.780Z,35.78
2019-03-22T04:02:07.368Z,40.40
2019-03-22T04:06:11.042Z,38.25
2019-03-22T04:10:14.707Z,38.05
2019-03-22T04:14:18.328Z,40.12
2019-03-22T04:18:21.909Z,36.70
2019-03-22T04:22:25.501Z,38.97
2019-03-22T04:26:29.100Z,40.63
2019-03-22T04:30:32.718Z,41.10
2019-03-22T04:34:36.409Z,39.98
2019-03-22T04:38:39.983Z,41.02
2019-03-22T04:42:43.574Z,41.35
2019-03-22T04:46:47.419Z,43.43
2019-03-22T04:50:53.748Z,40.83
2019-03-22T04:55:00.427Z,41.33
2019-03-22T04:59:18.325Z,45.17
2019-03-22T05:03:14.066Z,42.88
2019-03-22T05:07:19.407Z,40.50
2019-03-22T05:11:23.852Z,44.50
2019-03-22T05:15:28.090Z,44.67
2019-03-22T05:19:34.824Z,45.08
2019-03-22T05:23:39.643Z,41.42
2019-03-22T05:27:45.089Z,43.68
2019-03-22T05:32:07.441Z,44.25
2019-03-22T05:36:11.043Z,44.25
2019-03-22T05:40:14.652Z,44.13
2019-03-22T05:44:18.226Z,46.70
2019-03-22T05:48:21.832Z,46.10
2019-03-22T05:52:25.446Z,45.52
2019-03-22T05:56:29.148Z,44.80
2019-03-22T06:00:32.763Z,45.48
2019-03-22T06:04:36.348Z,46.77
2019-03-22T06:08:39.949Z,44.60
2019-03-22T06:12:43.554Z,44.93
2019-03-22T06:16:47.189Z,45.60
2019-03-22T06:20:50.787Z,44.70
2019-03-22T06:24:54.387Z,48.45
2019-03-22T06:28:57.997Z,45.73
2019-03-22T06:33:01.599Z,45.85
2019-03-22T06:37:05.195Z,47.25
2019-03-22T06:41:08.802Z,47.53
2019-03-22T06:45:12.534Z,44.45
2019-03-22T06:49:16.127Z,46.40
2019-03-22T06:53:19.723Z,45.10
2019-03-22T06:57:23.330Z,45.73
2019-03-22T07:01:26.935Z,46.08
2019-03-22T07:05:30.583Z,45.35
2019-03-22T07:09:34.191Z,44.87
2019-03-22T07:13:37.799Z,45.58
2019-03-22T07:17:41.837Z,46.35
2019-03-22T07:21:45.432Z,44.83
2019-03-22T07:25:49.038Z,45.17
2019-03-22T07:29:52.619Z,43.38
2019-03-22T07:33:56.258Z,45.92
2019-03-22T07:37:59.981Z,44.60
2019-03-22T07:42:03.587Z,43.58
2019-03-22T07:46:07.230Z,41.58
2019-03-22T07:50:16.628Z,45.25
2019-03-22T07:54:20.174Z,42.58
2019-03-22T07:58:23.838Z,43.48
2019-03-22T08:02:27.417Z,43.63
2019-03-22T08:06:31.005Z,40.40
2019-03-22T08:10:34.587Z,42.80
2019-03-22T08:14:38.344Z,42.55
2019-03-22T08:18:42.020Z,43.92
2019-03-22T08:22:45.707Z,42.23
2019-03-22T08:26:49.328Z,43.23
2019-03-22T08:30:52.886Z,44.65
2019-03-22T08:34:56.488Z,47.10
2019-03-22T08:39:00.074Z,43.27
2019-03-22T08:43:03.769Z,43.17
2019-03-22T08:47:07.355Z,45.75
2019-03-22T08:51:11.001Z,47.78
2019-03-22T08:55:14.623Z,45.58
2019-03-22T08:59:18.215Z,48.65
2019-03-22T09:03:21.878Z,50.17
2019-03-22T09:07:25.528Z,47.73
2019-03-22T09:11:29.118Z,50.52
2019-03-22T09:15:41.044Z,53.78
2019-03-22T09:19:43.065Z,48.48
2019-03-22T09:23:50.148Z,52.23
2019-03-22T09:27:58.412Z,50.10
2019-03-22T09:32:02.059Z,50.45
2019-03-22T09:36:05.694Z,53.75
2019-03-22T09:40:10.030Z,54.87
2019-03-22T09:44:43.405Z,54.73
2019-03-22T09:48:47.825Z,65.45
2019-03-22T09:52:53.107Z,61.73
2019-03-22T09:57:32.061Z,61.57
2019-03-22T10:01:26.479Z,63.90
2019-03-22T10:05:30.098Z,64.17
2019-03-22T10:09:33.726Z,65.52
2019-03-22T10:13:39.978Z,62.95
2019-03-22T10:17:43.647Z,65.77
2019-03-22T10:21:48.264Z,67.25
2019-03-22T10:25:51.865Z,64.77
2019-03-22T10:29:55.460Z,62.70
2019-03-22T10:33:59.112Z,65.25
2019-03-22T10:38:04.803Z,65.60
2019-03-22T10:42:08.153Z,60.57
2019-03-22T10:46:11.785Z,62.65
2019-03-22T10:50:15.364Z,67.22
2019-03-22T10:54:18.914Z,67.42
2019-03-22T10:58:22.535Z,66.70
2019-03-22T11:02:26.118Z,61.50
2019-03-22T11:06:29.716Z,63.57
2019-03-22T11:10:33.306Z,67.45
2019-03-22T11:14:36.894Z,69.90
2019-03-22T11:18:40.482Z,69.75
2019-03-22T11:22:44.064Z,71.50
2019-03-22T11:26:47.646Z,70.10
2019-03-22T11:30:51.257Z,71.02
2019-03-22T11:34:54.826Z,70.45
2019-03-22T11:38:58.426Z,73.35
2019-03-22T11:43:08.719Z,75.67
2019-03-22T11:47:07.247Z,72.67
2019-03-22T11:51:10.833Z,73.62
2019-03-22T11:55:15.061Z,79.72
2019-03-22T11:59:18.650Z,73.02
2019-03-22T12:03:22.338Z,80.85
2019-03-22T12:07:25.918Z,75.97
2019-03-22T12:11:29.507Z,77.00
2019-03-22T12:15:33.099Z,73.95
2019-03-22T12:19:36.684Z,74.37
2019-03-22T12:23:40.288Z,75.62
2019-03-22T12:27:43.870Z,73.60
2019-03-22T12:31:47.465Z,75.72
2019-03-22T12:35:51.039Z,75.15
2019-03-22T12:39:54.623Z,72.58
2019-03-22T12:43:59.167Z,72.40
2019-03-22T12:48:02.754Z,73.87
2019-03-22T12:52:13.556Z,71.76
2019-03-22T12:56:25.240Z,74.03
2019-03-22T13:00:31.372Z,70.80
2019-03-22T13:08:37.815Z,66.22
2019-03-22T13:12:41.399Z,65.00
2019-03-22T13:16:45.010Z,70.42
2019-03-22T13:20:48.597Z,66.67
2019-03-22T13:24:52.198Z,67.35
2019-03-22T13:28:55.883Z,63.38
2019-03-22T13:32:59.630Z,62.05
2019-03-22T13:37:03.222Z,64.65
2019-03-22T13:41:11.499Z,62.43
2019-03-22T13:45:15.106Z,58.50
2019-03-22T13:49:18.687Z,58.08
2019-03-22T13:53:22.266Z,62.85
2019-03-22T13:57:25.862Z,59.15
2019-03-22T14:01:29.461Z,60.23
2019-03-22T14:05:33.045Z,56.63
2019-03-22T14:09:36.734Z,59.93
2019-03-22T14:13:40.326Z,61.65
2019-03-22T14:17:44.356Z,58.23
2019-03-22T14:21:47.928Z,58.80
2019-03-22T14:25:51.511Z,57.47
2019-03-22T14:29:55.281Z,57.05
2019-03-22T14:33:58.858Z,54.08
2019-03-22T14:38:02.514Z,54.65
2019-03-22T14:42:06.103Z,55.40
2019-03-22T14:46:09.691Z,56.25
2019-03-22T14:50:13.502Z,55.15
2019-03-22T14:54:17.230Z,52.98
2019-03-22T14:58:20.822Z,48.70
2019-03-22T15:02:24.590Z,54.53
2019-03-22T15:06:28.118Z,51.28
2019-03-22T15:10:31.704Z,51.33
2019-03-22T15:14:45.917Z,56.30
2019-03-22T15:18:54.239Z,54.90
2019-03-22T15:23:13.436Z,52.67
2019-03-22T15:27:27.294Z,51.25
2019-03-22T15:31:48.776Z,50.00
2019-03-22T15:35:54.054Z,50.25
2019-03-22T15:40:04.804Z,49.63
2019-03-22T15:44:08.705Z,52.27
2019-03-22T15:48:12.402Z,54.77
2019-03-22T15:52:15.983Z,55.23
2019-03-22T15:56:19.595Z,56.63
2019-03-22T16:00:23.182Z,56.27
2019-03-22T16:04:26.778Z,53.35
2019-03-22T16:08:30.468Z,55.60
2019-03-22T16:12:34.063Z,55.73
2019-03-22T16:16:37.744Z,57.43
2019-03-22T16:20:41.319Z,56.35
2019-03-22T16:24:44.915Z,56.50
2019-03-22T16:28:48.504Z,58.25
2019-03-22T16:32:52.087Z,56.13
2019-03-22T16:36:55.675Z,56.28
2019-03-22T16:40:59.474Z,57.10
2019-03-22T16:45:03.344Z,57.95
2019-03-22T16:49:06.930Z,58.52
2019-03-22T16:53:10.512Z,56.23
2019-03-22T16:57:14.103Z,55.75
2019-03-22T17:01:17.784Z,60.15
2019-03-22T17:05:21.376Z,57.60
2019-03-22T17:09:24.981Z,55.98
2019-03-22T17:13:28.651Z,57.67
2019-03-22T17:25:59.759Z,58.68
2019-03-22T17:30:04.897Z,60.58
2019-03-22T17:34:14.158Z,62.03
2019-03-22T17:38:13.721Z,62.10
2019-03-22T17:42:17.327Z,61.48
2019-03-22T17:50:32.286Z,63.20
2019-03-22T17:54:35.899Z,62.15
2019-03-22T17:58:39.521Z,61.92
2019-03-22T18:02:43.193Z,72.62
2019-03-22T18:06:46.775Z,83.50
2019-03-22T18:10:50.411Z,65.62
2019-03-22T18:14:54.258Z,173.05
2019-03-22T18:18:58.106Z,72.27
2019-03-22T18:23:01.950Z,74.07
2019-03-22T18:27:05.583Z,67.00
2019-03-22T18:31:09.383Z,74.82
2019-03-22T18:35:13.467Z,69.97
2019-03-22T18:39:17.388Z,71.12
2019-03-22T18:43:21.102Z,68.87
2019-03-22T18:47:24.967Z,77.85
2019-03-22T18:51:28.578Z,73.87
2019-03-22T18:55:32.528Z,76.35
2019-03-22T18:59:36.282Z,70.80
2019-03-22T19:03:41.083Z,72.62
2019-03-22T19:07:44.891Z,71.72
2019-03-22T19:11:48.846Z,73.50
2019-03-22T19:15:52.615Z,70.50
2019-03-22T19:19:56.399Z,71.97
2019-03-22T19:24:00.140Z,70.28
2019-03-22T19:28:03.894Z,73.25
2019-03-22T19:32:13.367Z,75.17
2019-03-22T19:36:13.362Z,78.83
2019-03-22T19:40:17.409Z,76.55
2019-03-22T19:44:21.318Z,77.60
2019-03-22T19:48:25.296Z,77.87
2019-03-22T19:52:29.138Z,78.97
2019-03-22T19:56:33.144Z,80.62
2019-03-22T20:00:42.971Z,79.05
2019-03-22T20:04:51.336Z,82.05
2019-03-22T20:08:55.519Z,81.87
2019-03-22T20:12:59.506Z,81.45
2019-03-22T20:17:03.169Z,84.47
2019-03-22T20:21:06.855Z,83.78
2019-03-22T20:25:11.111Z,83.47
2019-03-22T20:29:14.716Z,84.55
2019-03-22T20:33:18.732Z,82.67
2019-03-22T20:37:22.324Z,83.72
2019-03-22T20:41:25.916Z,84.10
2019-03-22T20:45:29.536Z,83.87
2019-03-22T20:49:33.151Z,87.42
2019-03-22T20:53:36.773Z,85.32
2019-03-22T20:57:40.429Z,85.83
2019-03-22T21:01:44.033Z,83.75
2019-03-22T21:05:48.555Z,84.35
2019-03-22T21:09:52.219Z,81.85
2019-03-22T21:13:55.819Z,79.55
2019-03-22T21:17:59.430Z,85.60
2019-03-22T21:22:03.093Z,86.00
2019-03-22T21:26:06.748Z,88.82
2019-03-22T21:30:12.549Z,92.70
2019-03-22T21:34:16.177Z,84.25
2019-03-22T21:38:19.756Z,89.07
2019-03-22T21:42:23.368Z,86.02
2019-03-22T21:46:27.004Z,83.78
2019-03-22T21:50:30.603Z,87.62
2019-03-22T21:54:34.223Z,87.78
2019-03-22T21:58:37.907Z,87.60
2019-03-22T22:02:41.500Z,89.75
2019-03-22T22:06:47.812Z,86.40
2019-03-22T22:10:59.404Z,91.07
2019-03-22T22:14:55.697Z,85.00
2019-03-22T22:18:59.294Z,89.70
2019-03-22T22:23:02.884Z,89.80
2019-03-22T22:27:13.811Z,91.10
2019-03-22T22:31:11.823Z,93.20
2019-03-22T22:35:15.420Z,94.15
2019-03-22T22:39:19.022Z,89.52
2019-03-22T22:43:22.623Z,91.37
2019-03-22T22:47:26.212Z,91.78
2019-03-22T22:51:29.800Z,92.30
2019-03-22T22:55:33.394Z,89.25
2019-03-22T22:59:36.984Z,91.63
2019-03-22T23:03:40.756Z,92.95
2019-03-22T23:07:44.357Z,97.82
2019-03-22T23:11:47.960Z,93.80
2019-03-22T23:15:51.564Z,93.85
2019-03-22T23:19:55.161Z,94.30
2019-03-22T23:23:58.760Z,88.45
2019-03-22T23:28:02.361Z,94.05
2019-03-22T23:32:05.956Z,87.47
2019-03-22T23:36:19.499Z,91.35
2019-03-22T23:40:14.852Z,88.77
2019-03-22T23:44:18.451Z,92.05
2019-03-22T23:48:22.040Z,87.47
2019-03-22T23:52:25.627Z,88.87
2019-03-22T23:56:29.224Z,94.80
